SBQV Informações do Aeroporto

Informações da Pista
Pista 15 Comprimento 5823 ft Largura 98 ft
Elevação 0 ft Limite 0 ft Heading 0
Pista 33 Comprimento 5823 ft Largura 98 ft
Elevação 0 ft Limite 0 ft Heading 0
Frequências do Aeroporto
Tipo AFIS Nome RDO Frequência 130.3 MHZ
Navaids do Aeroporto
Tipo NDB Nome Conquista Frequência 260 KHZ
Informações meteorológicas do aeroporto e NOTAM
ADDS - METARS form results

(1957 UTC 25 April 2019)
Data provider http://aviationweather.gov/metar/data/
 
METAR text: SBQV 251900Z 16007KT 9999 SCT040 24/18 Q1019
Conditions at: SBQV (VITORIA DA CONQU, BR) observed 1900 UTC 25 April 2019
Temperature: 24.0°C (75°F)
Dewpoint: 18.0°C (64°F) [RH = 69%]
Pressure (altimeter): 30.09 inches Hg (1019.0 mb)
Winds: from the SSE (160 degrees) at 8 MPH (7 knots; 3.6 m/s)
Visibility: 6 or more miles (10+ km)
Ceiling: at least 12,000 feet AGL
Clouds: scattered clouds at 4000 feet AGL
Weather: no significant weather observed at this time